createdAt,value
2018-03-06T00:00:47.487Z,0
2018-03-06T00:01:48.475Z,0
2018-03-06T00:02:47.442Z,0
2018-03-06T00:03:47.436Z,0
2018-03-06T00:04:47.391Z,0
2018-03-06T00:05:49.424Z,0
2018-03-06T00:06:47.688Z,0
2018-03-06T00:07:47.618Z,0
2018-03-06T00:08:47.595Z,0
2018-03-06T00:09:49.034Z,0
2018-03-06T00:10:47.565Z,0
2018-03-06T00:11:47.256Z,0
2018-03-06T00:12:47.293Z,0
2018-03-06T00:13:46.924Z,0
2018-03-06T00:14:47.462Z,0
2018-03-06T00:15:47.163Z,0
2018-03-06T00:16:47.203Z,0
2018-03-06T00:17:50.051Z,0
2018-03-06T00:18:47.449Z,0
2018-03-06T00:19:47.121Z,0
2018-03-06T00:20:47.077Z,0
2018-03-06T00:21:46.755Z,0
2018-03-06T00:22:47.071Z,0
2018-03-06T00:23:47.354Z,0
2018-03-06T00:24:47.867Z,0
2018-03-06T00:25:46.958Z,0
2018-03-06T00:26:47.507Z,0
2018-03-06T00:27:47.877Z,0
2018-03-06T00:28:47.487Z,0
2018-03-06T00:29:47.466Z,0
2018-03-06T00:30:47.137Z,0
2018-03-06T00:31:48.648Z,0
2018-03-06T00:32:46.802Z,0
2018-03-06T00:33:47.354Z,0
2018-03-06T00:34:46.766Z,0
2018-03-06T00:35:48.297Z,0
2018-03-06T00:36:46.728Z,0
2018-03-06T00:37:46.969Z,0
2018-03-06T00:38:46.675Z,0
2018-03-06T00:39:46.370Z,0
2018-03-06T00:40:46.908Z,0
2018-03-06T00:41:46.601Z,0
2018-03-06T00:42:47.561Z,0
2018-03-06T00:43:47.143Z,0
2018-03-06T00:44:46.819Z,0
2018-03-06T00:45:47.276Z,0
2018-03-06T00:46:46.216Z,0
2018-03-06T00:47:46.751Z,0
2018-03-06T00:48:47.557Z,0
2018-03-06T00:49:46.710Z,0
2018-03-06T00:50:46.134Z,0
2018-03-06T00:51:46.395Z,0
2018-03-06T00:52:46.090Z,0
2018-03-06T00:53:46.366Z,0
2018-03-06T00:54:46.321Z,0
2018-03-06T00:55:48.392Z,0
2018-03-06T00:56:46.863Z,0
2018-03-06T00:57:46.268Z,0
2018-03-06T00:58:46.531Z,0
2018-03-06T00:59:46.811Z,0
2018-03-06T01:00:46.203Z,0
2018-03-06T01:01:46.183Z,0
2018-03-06T01:02:48.002Z,0
2018-03-06T01:03:46.408Z,0
2018-03-06T01:04:46.126Z,0
2018-03-06T01:05:46.379Z,0
2018-03-06T01:06:47.430Z,0
2018-03-06T01:07:46.623Z,0
2018-03-06T01:08:46.026Z,0
2018-03-06T01:09:46.276Z,0
2018-03-06T01:10:46.640Z,0
2018-03-06T01:11:45.962Z,0
2018-03-06T01:12:46.265Z,0
2018-03-06T01:13:46.594Z,0
2018-03-06T01:14:45.895Z,0
2018-03-06T01:15:45.896Z,0
2018-03-06T01:16:46.184Z,0
2018-03-06T01:17:45.558Z,0
2018-03-06T01:18:45.813Z,0
2018-03-06T01:19:45.785Z,0
2018-03-06T01:20:46.194Z,0
2018-03-06T01:21:45.806Z,0
2018-03-06T01:22:46.007Z,0
2018-03-06T01:23:45.979Z,0
2018-03-06T01:24:49.161Z,0
2018-03-06T01:25:45.377Z,0
2018-03-06T01:26:45.930Z,0
2018-03-06T01:27:47.426Z,0
2018-03-06T01:28:45.361Z,0
2018-03-06T01:29:45.581Z,0
2018-03-06T01:30:45.267Z,0
2018-03-06T01:31:47.652Z,0
2018-03-06T01:32:46.660Z,0
2018-03-06T01:33:45.488Z,0
2018-03-06T01:34:46.930Z,0
2018-03-06T01:35:46.000Z,0
2018-03-06T01:36:45.701Z,0
2018-03-06T01:37:48.706Z,0
2018-03-06T01:38:45.092Z,0
2018-03-06T01:39:45.074Z,0
2018-03-06T01:40:46.477Z,0
2018-03-06T01:41:45.304Z,0
2018-03-06T01:42:45.592Z,0
2018-03-06T01:43:45.870Z,0
2018-03-06T01:44:46.059Z,0
2018-03-06T01:45:45.818Z,0
2018-03-06T01:46:45.199Z,0
2018-03-06T01:47:46.739Z,0
2018-03-06T01:48:44.875Z,0
2018-03-06T01:49:45.423Z,0
2018-03-06T01:50:47.829Z,0
2018-03-06T01:51:45.080Z,0
2018-03-06T01:52:45.082Z,0
2018-03-06T01:53:45.052Z,0
2018-03-06T01:54:45.561Z,0
2018-03-06T01:55:45.008Z,0
2018-03-06T01:56:44.986Z,0
2018-03-06T01:57:45.652Z,0
2018-03-06T01:58:44.945Z,0
2018-03-06T01:59:45.486Z,0
2018-03-06T02:00:44.906Z,0
2018-03-06T02:01:44.869Z,0
2018-03-06T02:02:45.182Z,0
2018-03-06T02:03:45.104Z,0
2018-03-06T02:04:46.690Z,0
2018-03-06T02:05:44.789Z,0
2018-03-06T02:06:44.755Z,0
2018-03-06T02:07:45.026Z,0
2018-03-06T02:08:46.388Z,0
2018-03-06T02:09:44.980Z,0
2018-03-06T02:10:44.394Z,0
2018-03-06T02:11:47.886Z,0
2018-03-06T02:12:45.217Z,0
2018-03-06T02:13:44.610Z,0
2018-03-06T02:14:45.336Z,0
2018-03-06T02:15:47.542Z,0
2018-03-06T02:16:44.827Z,0
2018-03-06T02:17:44.794Z,0
2018-03-06T02:18:44.491Z,0
2018-03-06T02:19:46.240Z,0
2018-03-06T02:20:44.476Z,0
2018-03-06T02:21:44.442Z,0
2018-03-06T02:22:44.430Z,0
2018-03-06T02:23:45.976Z,0
2018-03-06T02:24:44.367Z,0
2018-03-06T02:25:44.346Z,0
2018-03-06T02:26:44.043Z,0
2018-03-06T02:27:44.582Z,0
2018-03-06T02:28:44.873Z,0
2018-03-06T02:29:44.255Z,0
2018-03-06T02:30:44.536Z,0
2018-03-06T02:31:43.935Z,0
2018-03-06T02:32:44.238Z,0
2018-03-06T02:33:46.345Z,0
2018-03-06T02:34:44.153Z,0
2018-03-06T02:35:44.128Z,0
2018-03-06T02:36:44.097Z,0
2018-03-06T02:37:46.225Z,0
2018-03-06T02:38:44.643Z,0
2018-03-06T02:39:44.341Z,0
2018-03-06T02:40:43.738Z,0
2018-03-06T02:41:43.992Z,0
2018-03-06T02:42:44.276Z,0
2018-03-06T02:43:44.254Z,0
2018-03-06T02:44:44.715Z,0
2018-03-06T02:45:43.910Z,0
2018-03-06T02:46:44.502Z,0
2018-03-06T02:47:44.925Z,0
2018-03-06T02:48:43.841Z,0
2018-03-06T02:49:44.111Z,0
2018-03-06T02:50:43.568Z,0
2018-03-06T02:51:44.541Z,0
2018-03-06T02:52:44.317Z,0
2018-03-06T02:53:44.009Z,0
2018-03-06T02:54:44.263Z,0
2018-03-06T02:55:45.516Z,0
2018-03-06T02:56:43.659Z,0
2018-03-06T02:57:43.643Z,0
2018-03-06T02:58:44.539Z,0
2018-03-06T02:59:43.898Z,0
2018-03-06T03:00:43.844Z,0
2018-03-06T03:01:43.553Z,0
2018-03-06T03:02:46.445Z,0
2018-03-06T03:03:43.796Z,0
2018-03-06T03:04:43.512Z,0
2018-03-06T03:05:43.758Z,0
2018-03-06T03:06:43.867Z,0
2018-03-06T03:07:43.440Z,0
2018-03-06T03:08:43.696Z,0
2018-03-06T03:09:44.916Z,0
2018-03-06T03:10:43.350Z,0
2018-03-06T03:11:43.614Z,0
2018-03-06T03:12:43.586Z,0
2018-03-06T03:13:45.167Z,0
2018-03-06T03:14:43.556Z,0
2018-03-06T03:15:43.238Z,0
2018-03-06T03:16:43.244Z,0
2018-03-06T03:17:45.084Z,0
2018-03-06T03:18:43.534Z,0
2018-03-06T03:19:43.434Z,0
2018-03-06T03:20:43.131Z,0
2018-03-06T03:21:43.801Z,0
2018-03-06T03:22:42.860Z,0
2018-03-06T03:23:43.643Z,0
2018-03-06T03:24:44.965Z,0
2018-03-06T03:25:43.019Z,0
2018-03-06T03:26:43.288Z,0
2018-03-06T03:27:43.956Z,0
2018-03-06T03:28:43.234Z,0
2018-03-06T03:29:42.944Z,0
2018-03-06T03:30:44.793Z,0
2018-03-06T03:31:43.215Z,0
2018-03-06T03:32:42.578Z,0
2018-03-06T03:33:44.925Z,0
2018-03-06T03:34:42.825Z,0
2018-03-06T03:35:43.351Z,0
2018-03-06T03:36:42.491Z,0
2018-03-06T03:37:45.661Z,0
2018-03-06T03:38:42.731Z,0
2018-03-06T03:39:43.007Z,0
2018-03-06T03:40:44.555Z,0
2018-03-06T03:41:42.652Z,0
2018-03-06T03:42:42.651Z,0
2018-03-06T03:43:44.218Z,0
2018-03-06T03:44:42.876Z,0
2018-03-06T03:45:42.630Z,0
2018-03-06T03:46:44.578Z,0
2018-03-06T03:47:42.528Z,0
2018-03-06T03:48:42.501Z,0
2018-03-06T03:49:44.409Z,0
2018-03-06T03:50:42.748Z,0
2018-03-06T03:51:42.153Z,0
2018-03-06T03:52:43.314Z,0
2018-03-06T03:53:42.397Z,0
2018-03-06T03:54:42.640Z,0
2018-03-06T03:55:42.365Z,0
2018-03-06T03:56:42.971Z,0
2018-03-06T03:57:42.578Z,0
2018-03-06T03:58:42.573Z,0
2018-03-06T03:59:43.104Z,0
2018-03-06T04:00:42.223Z,0
2018-03-06T04:01:42.487Z,0
2018-03-06T04:02:42.475Z,0
2018-03-06T04:03:43.115Z,0
2018-03-06T04:04:42.161Z,0
2018-03-06T04:05:43.081Z,0
2018-03-06T04:06:42.391Z,0
2018-03-06T04:07:42.069Z,0
2018-03-06T04:08:44.141Z,0
2018-03-06T04:09:42.033Z,0
2018-03-06T04:10:42.291Z,0
2018-03-06T04:11:42.097Z,0
2018-03-06T04:12:42.606Z,0
2018-03-06T04:13:41.942Z,0
2018-03-06T04:14:42.472Z,0
2018-03-06T04:15:44.911Z,0
2018-03-06T04:16:41.866Z,0
2018-03-06T04:17:42.464Z,0
2018-03-06T04:18:44.378Z,0
2018-03-06T04:19:42.112Z,0
2018-03-06T04:20:41.772Z,0
2018-03-06T04:21:43.792Z,0
2018-03-06T04:22:42.006Z,0
2018-03-06T04:23:42.312Z,0
2018-03-06T04:24:41.986Z,0
2018-03-06T04:25:42.541Z,0
2018-03-06T04:26:41.646Z,0
2018-03-06T04:27:41.640Z,0
2018-03-06T04:28:42.896Z,0
2018-03-06T04:29:41.573Z,0
2018-03-06T04:30:42.149Z,0
2018-03-06T04:31:41.818Z,0
2018-03-06T04:32:42.421Z,0
2018-03-06T04:33:41.775Z,0
2018-03-06T04:34:42.111Z,0
2018-03-06T04:35:43.414Z,0
2018-03-06T04:36:41.706Z,0
2018-03-06T04:37:41.594Z,0
2018-03-06T04:38:42.305Z,0
2018-03-06T04:39:41.624Z,0
2018-03-06T04:40:41.324Z,0
2018-03-06T04:41:41.021Z,0
2018-03-06T04:42:42.127Z,0
2018-03-06T04:43:41.524Z,0
2018-03-06T04:44:41.787Z,0
2018-03-06T04:45:41.912Z,0
2018-03-06T04:46:42.614Z,0
2018-03-06T04:47:41.432Z,0
2018-03-06T04:48:41.418Z,0
2018-03-06T04:49:40.840Z,0
2018-03-06T04:50:41.097Z,0
2018-03-06T04:51:41.349Z,0
2018-03-06T04:52:41.863Z,0
2018-03-06T04:53:41.018Z,0
2018-03-06T04:54:41.008Z,0
2018-03-06T04:55:41.275Z,0
2018-03-06T04:56:42.629Z,0
2018-03-06T04:57:41.235Z,0
2018-03-06T04:58:40.925Z,0
2018-03-06T04:59:41.472Z,0
2018-03-06T05:00:41.603Z,0
2018-03-06T05:01:41.558Z,0
2018-03-06T05:02:40.904Z,0
2018-03-06T05:03:40.527Z,0
2018-03-06T05:04:40.774Z,0
2018-03-06T05:05:41.309Z,0
2018-03-06T05:06:40.454Z,0
2018-03-06T05:07:42.229Z,0
2018-03-06T05:08:40.700Z,0
2018-03-06T05:09:40.687Z,0
2018-03-06T05:10:40.638Z,0
2018-03-06T05:11:40.954Z,0
2018-03-06T05:12:40.922Z,0
2018-03-06T05:13:43.509Z,0
2018-03-06T05:14:40.852Z,0
2018-03-06T05:15:40.801Z,0
2018-03-06T05:16:40.778Z,0
2018-03-06T05:17:42.333Z,0
2018-03-06T05:18:40.472Z,0
2018-03-06T05:19:41.000Z,0
2018-03-06T05:20:40.131Z,0
2018-03-06T05:21:40.669Z,0
2018-03-06T05:22:40.696Z,0
2018-03-06T05:23:40.340Z,0
2018-03-06T05:24:41.884Z,0
2018-03-06T05:25:40.295Z,0
2018-03-06T05:26:40.285Z,0
2018-03-06T05:27:40.598Z,0
2018-03-06T05:28:41.254Z,0
2018-03-06T05:29:40.488Z,0
2018-03-06T05:30:40.203Z,0
2018-03-06T05:31:40.484Z,0
2018-03-06T05:32:39.854Z,0
2018-03-06T05:33:40.610Z,0
2018-03-06T05:34:40.390Z,0
2018-03-06T05:35:39.783Z,0
2018-03-06T05:36:41.054Z,0
2018-03-06T05:37:40.295Z,4
2018-03-06T05:38:40.283Z,4
2018-03-06T05:39:40.588Z,0
2018-03-06T05:40:41.731Z,4
2018-03-06T05:41:39.935Z,8
2018-03-06T05:42:40.185Z,4
2018-03-06T05:43:40.152Z,8
2018-03-06T05:44:40.824Z,8
2018-03-06T05:45:39.836Z,8
2018-03-06T05:46:40.142Z,8
2018-03-06T05:47:40.066Z,12
2018-03-06T05:48:40.691Z,16
2018-03-06T05:49:39.466Z,20
2018-03-06T05:50:40.007Z,24
2018-03-06T05:51:40.623Z,24
2018-03-06T05:52:39.951Z,28
2018-03-06T05:53:39.650Z,32
2018-03-06T05:54:39.622Z,36
2018-03-06T05:55:41.035Z,44
2018-03-06T05:56:39.587Z,48
2018-03-06T05:57:39.277Z,56
2018-03-06T05:58:39.541Z,60
2018-03-06T05:59:42.545Z,68
2018-03-06T06:00:39.497Z,80
2018-03-06T06:01:39.766Z,84
2018-03-06T06:02:40.254Z,96
2018-03-06T06:03:39.973Z,104
2018-03-06T06:04:39.955Z,116
2018-03-06T06:05:39.387Z,124
2018-03-06T06:06:40.370Z,136
2018-03-06T06:07:39.357Z,152
2018-03-06T06:08:39.028Z,164
2018-03-06T06:09:39.004Z,176
2018-03-06T06:10:39.270Z,192
2018-03-06T06:11:38.962Z,208
2018-03-06T06:12:39.518Z,220
2018-03-06T06:13:39.784Z,240
2018-03-06T06:14:39.160Z,260
2018-03-06T06:15:39.394Z,288
2018-03-06T06:16:39.178Z,320
2018-03-06T06:17:39.084Z,344
2018-03-06T06:18:39.648Z,372
2018-03-06T06:19:39.310Z,400
2018-03-06T06:20:39.026Z,432
2018-03-06T06:21:38.999Z,468
2018-03-06T06:22:38.708Z,508
2018-03-06T06:23:39.024Z,548
2018-03-06T06:24:38.991Z,596
2018-03-06T06:25:38.906Z,664
2018-03-06T06:26:38.875Z,732
2018-03-06T06:27:39.123Z,800
2018-03-06T06:28:38.565Z,828
2018-03-06T06:29:39.114Z,844
2018-03-06T06:30:39.211Z,860
2018-03-06T06:31:39.076Z,908
2018-03-06T06:32:38.477Z,956
2018-03-06T06:33:38.724Z,1008
2018-03-06T06:34:38.959Z,1004
2018-03-06T06:35:39.213Z,952
2018-03-06T06:36:38.383Z,944
2018-03-06T06:37:38.631Z,1000
2018-03-06T06:38:39.192Z,1048
2018-03-06T06:39:39.110Z,1108
2018-03-06T06:40:39.095Z,1184
2018-03-06T06:41:38.278Z,1260
2018-03-06T06:42:38.515Z,1324
2018-03-06T06:43:38.781Z,1336
2018-03-06T06:44:38.737Z,1328
2018-03-06T06:45:38.734Z,1352
2018-03-06T06:46:38.691Z,1396
2018-03-06T06:47:38.404Z,1412
2018-03-06T06:48:38.383Z,1396
2018-03-06T06:49:38.618Z,1292
2018-03-06T06:50:38.339Z,1264
2018-03-06T06:51:38.316Z,1332
2018-03-06T06:52:38.029Z,1328
2018-03-06T06:53:38.272Z,1284
2018-03-06T06:54:38.251Z,1248
2018-03-06T06:55:38.224Z,1184
2018-03-06T06:56:38.207Z,1112
2018-03-06T06:57:38.829Z,1056
2018-03-06T06:58:38.166Z,1176
2018-03-06T06:59:38.196Z,1324
2018-03-06T07:00:38.396Z,1536
2018-03-06T07:01:38.103Z,1708
2018-03-06T07:02:38.336Z,1828
2018-03-06T07:03:38.052Z,1768
2018-03-06T07:04:38.565Z,1632
2018-03-06T07:05:38.019Z,1536
2018-03-06T07:06:38.252Z,1488
2018-03-06T07:07:38.501Z,1428
2018-03-06T07:08:37.945Z,1368
2018-03-06T07:09:37.923Z,1348
2018-03-06T07:10:37.643Z,1340
2018-03-06T07:11:37.878Z,1372
2018-03-06T07:12:37.866Z,1452
2018-03-06T07:13:38.102Z,1552
2018-03-06T07:14:38.082Z,1684
2018-03-06T07:15:37.586Z,1804
2018-03-06T07:16:37.772Z,1908
2018-03-06T07:17:38.030Z,2028
2018-03-06T07:18:37.998Z,2192
2018-03-06T07:19:37.709Z,2356
2018-03-06T07:20:38.216Z,2508
2018-03-06T07:21:37.664Z,2656
2018-03-06T07:22:37.911Z,2712
2018-03-06T07:23:37.629Z,2740
2018-03-06T07:24:37.606Z,2924
2018-03-06T07:25:38.114Z,3072
2018-03-06T07:26:37.584Z,3072
2018-03-06T07:27:37.810Z,2904
2018-03-06T07:28:37.790Z,2728
2018-03-06T07:29:37.234Z,2652
2018-03-06T07:30:37.738Z,2576
2018-03-06T07:31:37.988Z,2512
2018-03-06T07:32:37.710Z,2580
2018-03-06T07:33:37.615Z,2636
2018-03-06T07:34:37.394Z,2820
2018-03-06T07:35:37.902Z,2812
2018-03-06T07:36:37.089Z,2972
2018-03-06T07:37:37.342Z,2980
2018-03-06T07:38:37.047Z,3040
2018-03-06T07:39:37.291Z,3076
2018-03-06T07:40:37.276Z,3108
2018-03-06T07:41:37.262Z,3324
2018-03-06T07:42:37.756Z,3632
2018-03-06T07:43:36.943Z,3872
2018-03-06T07:44:37.196Z,3952
2018-03-06T07:45:37.176Z,3876
2018-03-06T07:46:37.669Z,3836
2018-03-06T07:47:37.394Z,3592
2018-03-06T07:48:37.372Z,3300
2018-03-06T07:49:37.370Z,3316
2018-03-06T07:50:37.067Z,3548
2018-03-06T07:51:37.316Z,3720
2018-03-06T07:52:37.028Z,3932
2018-03-06T07:53:37.273Z,4100
2018-03-06T07:54:37.255Z,4172
2018-03-06T07:55:37.227Z,4184
2018-03-06T07:56:36.945Z,4044
2018-03-06T07:57:36.660Z,3924
2018-03-06T07:58:36.907Z,4004
2018-03-06T07:59:36.883Z,4116
2018-03-06T08:00:36.932Z,4148
2018-03-06T08:01:36.853Z,3992
2018-03-06T08:02:37.139Z,4072
2018-03-06T08:03:37.069Z,4260
2018-03-06T08:04:37.318Z,4444
2018-03-06T08:05:37.029Z,4652
2018-03-06T08:06:36.756Z,4872
2018-03-06T08:07:36.722Z,5140
2018-03-06T08:08:36.965Z,5368
2018-03-06T08:09:36.813Z,5700
2018-03-06T08:10:36.665Z,5832
2018-03-06T08:11:36.639Z,6324
2018-03-06T08:12:37.152Z,6484
2018-03-06T08:13:36.873Z,6812
2018-03-06T08:14:36.852Z,6768
2018-03-06T08:15:36.831Z,6992
2018-03-06T08:16:36.806Z,6544
2018-03-06T08:17:36.521Z,6552
2018-03-06T08:18:36.507Z,6468
2018-03-06T08:19:36.754Z,6488
2018-03-06T08:20:36.731Z,5980
2018-03-06T08:21:36.507Z,6588
2018-03-06T08:22:36.440Z,6436
2018-03-06T08:23:36.413Z,6768
2018-03-06T08:24:36.396Z,7344
2018-03-06T08:25:36.374Z,13952
2018-03-06T08:26:36.365Z,9780
2018-03-06T08:27:36.072Z,10268
2018-03-06T08:28:36.062Z,13180
2018-03-06T08:29:36.297Z,13588
2018-03-06T08:30:36.544Z,10904
2018-03-06T08:31:36.263Z,20800
2018-03-06T08:32:36.782Z,15552
2018-03-06T08:33:36.237Z,14360
2018-03-06T08:34:49.218Z,10924
2018-03-06T08:35:36.463Z,9348
2018-03-06T08:36:35.917Z,8816
2018-03-06T08:37:35.905Z,9256
2018-03-06T08:38:36.675Z,9452
2018-03-06T08:39:36.133Z,7980
2018-03-06T08:40:36.384Z,7096
2018-03-06T08:41:36.365Z,6960
2018-03-06T08:42:36.359Z,7728
2018-03-06T08:43:36.073Z,6688
2018-03-06T08:44:36.337Z,6380
2018-03-06T08:45:36.041Z,6376
2018-03-06T08:46:36.292Z,6412
2018-03-06T08:47:36.270Z,7016
2018-03-06T08:48:35.992Z,6496
2018-03-06T08:49:35.976Z,6516
2018-03-06T08:50:35.697Z,6700
2018-03-06T08:51:35.941Z,6656
2018-03-06T08:52:36.193Z,6640
2018-03-06T08:53:36.186Z,6568
2018-03-06T08:54:36.165Z,6448
2018-03-06T08:55:35.611Z,6432
2018-03-06T08:56:35.871Z,6404
2018-03-06T08:57:35.854Z,6328
2018-03-06T08:58:36.125Z,6188
2018-03-06T08:59:36.083Z,6108
2018-03-06T09:00:35.531Z,6288
2018-03-06T09:01:36.315Z,6164
2018-03-06T09:02:36.047Z,6180
2018-03-06T09:03:36.119Z,6264
2018-03-06T09:04:35.737Z,6300
2018-03-06T09:05:35.715Z,6476
2018-03-06T09:06:35.706Z,6820
2018-03-06T09:07:36.213Z,7292
2018-03-06T09:08:35.411Z,7980
2018-03-06T09:09:36.190Z,8464
2018-03-06T09:10:35.643Z,11568
2018-03-06T09:11:35.623Z,8796
2018-03-06T09:12:35.340Z,8716
2018-03-06T09:13:35.588Z,8428
2018-03-06T09:14:35.573Z,8612
2018-03-06T09:15:35.834Z,8876
2018-03-06T09:16:35.562Z,12372
2018-03-06T09:17:35.263Z,9796
2018-03-06T09:18:35.774Z,9144
2018-03-06T09:19:35.236Z,9076
2018-03-06T09:20:35.483Z,9184
2018-03-06T09:21:35.773Z,9440
2018-03-06T09:22:35.539Z,9852
2018-03-06T09:23:36.038Z,10260
2018-03-06T09:24:35.452Z,10372
2018-03-06T09:25:35.668Z,10564
2018-03-06T09:26:35.382Z,11284
2018-03-06T09:27:35.106Z,10468
2018-03-06T09:28:35.622Z,10272
2018-03-06T09:29:35.868Z,9644
2018-03-06T09:30:35.059Z,9124
2018-03-06T09:31:35.588Z,8912
2018-03-06T09:32:35.616Z,8784
2018-03-06T09:33:35.751Z,8788
2018-03-06T09:34:35.802Z,9248
2018-03-06T09:35:35.524Z,9660
2018-03-06T09:36:35.787Z,9836
2018-03-06T09:37:35.229Z,10028
2018-03-06T09:38:35.486Z,10404
2018-03-06T09:39:35.466Z,10696
2018-03-06T09:40:35.182Z,11064
2018-03-06T09:41:35.699Z,11920
2018-03-06T09:42:35.474Z,12720
2018-03-06T09:43:35.402Z,13344
2018-03-06T09:44:35.655Z,15264
2018-03-06T09:45:35.376Z,14448
2018-03-06T09:46:35.108Z,14216
2018-03-06T09:47:35.357Z,13436
2018-03-06T09:48:35.595Z,13828
2018-03-06T09:49:35.051Z,13340
2018-03-06T09:50:35.311Z,13728
2018-03-06T09:51:35.023Z,14412
2018-03-06T09:52:35.278Z,14848
2018-03-06T09:53:34.997Z,14776
2018-03-06T09:54:34.981Z,15792
2018-03-06T09:55:35.237Z,17824
2018-03-06T09:56:34.957Z,18144
2018-03-06T09:57:35.271Z,17184
2018-03-06T09:58:34.669Z,16736
2018-03-06T09:59:35.181Z,16416
2018-03-06T10:00:34.909Z,14848
2018-03-06T10:01:35.163Z,14308
2018-03-06T10:02:35.148Z,13800
2018-03-06T10:03:35.124Z,13820
2018-03-06T10:04:35.116Z,14204
2018-03-06T10:05:34.855Z,14308
2018-03-06T10:06:35.390Z,13368
2018-03-06T10:07:34.841Z,14116
2018-03-06T10:08:35.086Z,14312
2018-03-06T10:09:35.064Z,14664
2018-03-06T10:10:35.323Z,14416
2018-03-06T10:11:34.774Z,14536
2018-03-06T10:12:35.034Z,16800
2018-03-06T10:13:35.022Z,20928
2018-03-06T10:14:35.268Z,23328
2018-03-06T10:15:35.281Z,19936
2018-03-06T10:16:34.716Z,20128
2018-03-06T10:17:34.440Z,23616
2018-03-06T10:18:35.223Z,30752
2018-03-06T10:19:34.946Z,24480
2018-03-06T10:20:34.671Z,24832
2018-03-06T10:21:34.926Z,28896
2018-03-06T10:22:35.293Z,25792
2018-03-06T10:23:34.912Z,19136
2018-03-06T10:24:34.892Z,18848
2018-03-06T10:25:34.885Z,24448
2018-03-06T10:26:34.878Z,27008
2018-03-06T10:27:34.598Z,21344
2018-03-06T10:28:34.864Z,18272
2018-03-06T10:29:34.581Z,17600
2018-03-06T10:30:34.841Z,18080
2018-03-06T10:31:34.564Z,24576
2018-03-06T10:32:34.558Z,25760
2018-03-06T10:33:34.545Z,21152
2018-03-06T10:34:34.801Z,19808
2018-03-06T10:35:35.056Z,24704
2018-03-06T10:36:34.925Z,25216
2018-03-06T10:37:34.504Z,25376
2018-03-06T10:38:34.499Z,32032
2018-03-06T10:39:34.235Z,40576
2018-03-06T10:40:34.751Z,35104
2018-03-06T10:41:34.740Z,34592
2018-03-06T10:42:34.756Z,39648
2018-03-06T10:43:34.996Z,32096
2018-03-06T10:44:34.714Z,34336
2018-03-06T10:45:34.706Z,34912
2018-03-06T10:46:34.165Z,30624
2018-03-06T10:47:34.696Z,27744
2018-03-06T10:48:34.420Z,30272
2018-03-06T10:49:34.437Z,26848
2018-03-06T10:50:34.675Z,34048
2018-03-06T10:51:34.663Z,43008
2018-03-06T10:52:34.661Z,39840
2018-03-06T10:53:34.389Z,37440
2018-03-06T10:54:34.384Z,40672
2018-03-06T10:55:34.375Z,33152
2018-03-06T10:56:34.372Z,35008
2018-03-06T10:57:34.096Z,35008
2018-03-06T10:58:34.356Z,41664
2018-03-06T10:59:34.898Z,40512
2018-03-06T11:00:34.352Z,42816
2018-03-06T11:01:34.632Z,40032
2018-03-06T11:02:34.344Z,35872
2018-03-06T11:03:34.868Z,33088
2018-03-06T11:04:34.651Z,33472
2018-03-06T11:05:34.324Z,37248
2018-03-06T11:06:34.056Z,41440
2018-03-06T11:07:34.585Z,43776
2018-03-06T11:08:34.845Z,45056
2018-03-06T11:09:34.573Z,38912
2018-03-06T11:10:34.567Z,29728
2018-03-06T11:11:34.308Z,30624
2018-03-06T11:12:34.301Z,35072
2018-03-06T11:13:34.561Z,27680
2018-03-06T11:14:34.646Z,23360
2018-03-06T11:15:34.289Z,25664
2018-03-06T11:16:34.557Z,27520
2018-03-06T11:17:34.542Z,28960
2018-03-06T11:18:34.310Z,30432
2018-03-06T11:19:34.533Z,27936
2018-03-06T11:20:34.539Z,26464
2018-03-06T11:21:34.795Z,28320
2018-03-06T11:22:34.530Z,27552
2018-03-06T11:23:34.528Z,28480
2018-03-06T11:24:34.514Z,34912
2018-03-06T11:25:34.249Z,37248
2018-03-06T11:26:34.778Z,42560
2018-03-06T11:27:34.509Z,42336
2018-03-06T11:28:34.241Z,40512
2018-03-06T11:29:33.963Z,33696
2018-03-06T11:30:34.493Z,29728
2018-03-06T11:31:34.765Z,22304
2018-03-06T11:32:34.486Z,19136
2018-03-06T11:33:34.433Z,21344
2018-03-06T11:34:33.947Z,23712
2018-03-06T11:35:34.251Z,23008
2018-03-06T11:36:34.473Z,25408
2018-03-06T11:37:34.202Z,28288
2018-03-06T11:38:34.193Z,26720
2018-03-06T11:39:34.462Z,28320
2018-03-06T11:40:34.719Z,27168
2018-03-06T11:41:34.459Z,30624
2018-03-06T11:42:34.722Z,32128
2018-03-06T11:43:34.444Z,30144
2018-03-06T11:44:34.702Z,27680
2018-03-06T11:45:34.436Z,24928
2018-03-06T11:46:34.164Z,21888
2018-03-06T11:47:34.426Z,22208
2018-03-06T11:48:33.892Z,22240
2018-03-06T11:49:34.421Z,20672
2018-03-06T11:50:34.152Z,21536
2018-03-06T11:51:34.406Z,20832
2018-03-06T11:52:34.141Z,22144
2018-03-06T11:53:34.673Z,23872
2018-03-06T11:54:34.675Z,26848
2018-03-06T11:55:34.144Z,26560
2018-03-06T11:56:34.123Z,25824
2018-03-06T11:57:34.387Z,24928
2018-03-06T11:58:34.661Z,24608
2018-03-06T11:59:34.113Z,23488
2018-03-06T12:00:34.371Z,23136
2018-03-06T12:01:34.370Z,24416
2018-03-06T12:02:34.364Z,23104
2018-03-06T12:03:34.094Z,23488
2018-03-06T12:04:34.113Z,23616
2018-03-06T12:05:34.087Z,23840
2018-03-06T12:06:34.083Z,22976
2018-03-06T12:07:34.070Z,22880
2018-03-06T12:08:34.294Z,23488
2018-03-06T12:09:34.336Z,24000
2018-03-06T12:10:34.326Z,23520
2018-03-06T12:11:34.323Z,23200
2018-03-06T12:12:34.321Z,22432
2018-03-06T12:13:34.308Z,22464
2018-03-06T12:14:34.048Z,22368
2018-03-06T12:15:34.035Z,22784
2018-03-06T12:16:34.299Z,22528
2018-03-06T12:17:33.759Z,22752
2018-03-06T12:18:34.285Z,22848
2018-03-06T12:19:33.749Z,23328
2018-03-06T12:20:34.539Z,23552
2018-03-06T12:21:33.738Z,21888
2018-03-06T12:22:34.575Z,21888
2018-03-06T12:23:34.260Z,21088
2018-03-06T12:24:33.724Z,20096
2018-03-06T12:25:33.721Z,20448
2018-03-06T12:26:33.988Z,20864
2018-03-06T12:27:34.237Z,21344
2018-03-06T12:28:34.241Z,21536
2018-03-06T12:29:34.232Z,21344
2018-03-06T12:30:34.225Z,22048
2018-03-06T12:31:33.687Z,22304
2018-03-06T12:32:34.217Z,21856
2018-03-06T12:33:34.204Z,21504
2018-03-06T12:34:33.943Z,20320
2018-03-06T12:35:34.475Z,20992
2018-03-06T12:36:34.459Z,21184
2018-03-06T12:37:33.923Z,20736
2018-03-06T12:38:33.651Z,21344
2018-03-06T12:39:34.445Z,19584
2018-03-06T12:40:34.177Z,19552
2018-03-06T12:41:34.174Z,19712
2018-03-06T12:42:34.155Z,19840
2018-03-06T12:43:34.214Z,20352
2018-03-06T12:44:34.162Z,20864
2018-03-06T12:45:34.150Z,21856
2018-03-06T12:46:33.867Z,22016
2018-03-06T12:47:33.861Z,22048
2018-03-06T12:48:33.859Z,24448
2018-03-06T12:49:34.124Z,25472
2018-03-06T12:50:34.121Z,25056
2018-03-06T12:51:34.129Z,24096
2018-03-06T12:52:34.121Z,24608
2018-03-06T12:53:34.100Z,24960
2018-03-06T12:54:34.085Z,25760
2018-03-06T12:55:34.091Z,27200
2018-03-06T12:56:33.810Z,29312
2018-03-06T12:57:33.803Z,29568
2018-03-06T12:58:34.093Z,30176
2018-03-06T12:59:33.800Z,29984
2018-03-06T13:00:34.051Z,28128
2018-03-06T13:01:34.066Z,28096
2018-03-06T13:02:33.776Z,27520
2018-03-06T13:03:33.509Z,25088
2018-03-06T13:04:34.040Z,27968
2018-03-06T13:05:34.029Z,28704
2018-03-06T13:06:34.292Z,27104
2018-03-06T13:07:33.765Z,27680
2018-03-06T13:08:33.748Z,27552
2018-03-06T13:09:33.744Z,26784
2018-03-06T13:10:34.277Z,26496
2018-03-06T13:11:34.004Z,25632
2018-03-06T13:12:34.005Z,25472
2018-03-06T13:13:33.728Z,24256
2018-03-06T13:14:34.259Z,24224
2018-03-06T13:15:33.727Z,24224
2018-03-06T13:16:33.723Z,24384
2018-03-06T13:17:33.979Z,25280
2018-03-06T13:18:33.706Z,25248
2018-03-06T13:19:33.973Z,23776
2018-03-06T13:20:33.968Z,21984
2018-03-06T13:21:33.426Z,23040
2018-03-06T13:22:33.426Z,23136
2018-03-06T13:23:33.680Z,22560
2018-03-06T13:24:33.684Z,22464
2018-03-06T13:25:33.674Z,22080
2018-03-06T13:26:33.672Z,21888
2018-03-06T13:27:33.931Z,21824
2018-03-06T13:28:33.926Z,21152
2018-03-06T13:29:33.394Z,22464
2018-03-06T13:30:33.657Z,21984
2018-03-06T13:31:33.648Z,21184
2018-03-06T13:32:34.176Z,21152
2018-03-06T13:33:48.780Z,22688
2018-03-06T13:34:33.641Z,24320
2018-03-06T13:35:33.903Z,24832
2018-03-06T13:36:34.162Z,25952
2018-03-06T13:37:33.890Z,25984
2018-03-06T13:38:34.150Z,25408
2018-03-06T13:39:33.879Z,26944
2018-03-06T13:40:33.345Z,30144
2018-03-06T13:41:33.874Z,31552
2018-03-06T13:42:33.606Z,31936
2018-03-06T13:43:33.861Z,31936
2018-03-06T13:44:34.131Z,31360
2018-03-06T13:45:33.854Z,31200
2018-03-06T13:46:33.585Z,32000